Time;durP1;ratioP1;P1;durP2;ratioP2;P2;SDS_P1;SDS_P2;PMS_P1;PMS_P2;Temp;Humidity;BMP_temperature;BMP_pressure;BME280_temperature;BME280_humidity;BME280_pressure;Samples;Min_cycle;Max_cycle;Signal;HPM_P1;HPM_P2
2023/12/28 00:02:24;;;;;;;7.15;5.60;;;;;;;20.92;52.72;101140.06;41672290;28;20048;-70
2023/12/28 00:22:24;;;;;;;6.40;5.05;;;;;;;20.88;52.91;101157.81;41679917;28;20119;-70
2023/12/28 00:42:25;;;;;;;6.97;5.00;;;;;;;20.84;53.12;101160.78;41674314;28;20116;-68
2023/12/28 01:02:25;;;;;;;5.68;4.45;;;;;;;20.82;52.96;101171.38;41660871;28;20102;-69
2023/12/28 01:22:26;;;;;;;5.10;4.57;;;;;;;20.76;52.96;101162.09;41710391;28;20045;-70
2023/12/28 01:42:26;;;;;;;5.00;4.20;;;;;;;20.76;53.42;101151.56;41696990;28;20049;-70
2023/12/28 02:02:27;;;;;;;5.68;4.63;;;;;;;20.72;53.50;101128.19;41705357;28;20384;-69
2023/12/28 02:22:29;;;;;;;6.03;4.43;;;;;;;20.69;53.26;101112.53;41703048;28;20097;-69
2023/12/28 02:42:29;;;;;;;4.43;4.00;;;;;;;20.66;53.26;101092.53;41690942;28;20408;-69
2023/12/28 03:02:29;;;;;;;4.15;3.50;;;;;;;20.65;53.57;101082.94;41685605;28;20041;-70
2023/12/28 03:22:30;;;;;;;4.97;3.90;;;;;;;20.60;53.78;101066.59;41691508;28;20049;-69
2023/12/28 03:42:30;;;;;;;4.32;3.75;;;;;;;20.57;53.60;101048.41;41689190;28;20045;-69
2023/12/28 04:02:32;;;;;;;4.97;3.78;;;;;;;20.53;53.07;101039.88;41677889;28;20069;-70
2023/12/28 04:22:32;;;;;;;4.18;3.70;;;;;;;20.52;52.74;101018.91;41677199;28;20052;-70
2023/12/28 04:42:40;;;;;;;4.10;3.50;;;;;;;20.45;52.93;100998.25;41682365;28;20044;-70
2023/12/28 05:02:43;;;;;;;5.57;3.63;;;;;;;20.43;53.21;100999.28;41654975;28;20103;-69
2023/12/28 05:22:44;;;;;;;3.83;3.42;;;;;;;20.95;51.88;101002.97;41671138;28;20045;-69
2023/12/28 05:42:44;;;;;;;4.20;3.50;;;;;;;21.16;51.45;101011.22;41678773;28;24145;-69
2023/12/28 06:02:49;;;;;;;5.97;3.00;;;;;;;21.24;51.19;101019.44;41683574;28;20056;-66
2023/12/28 06:22:50;;;;;;;7.22;3.17;;;;;;;21.39;51.30;101014.91;41685685;28;20049;-67
2023/12/28 06:42:51;;;;;;;3.90;3.20;;;;;;;21.44;51.23;101015.44;41684059;28;20551;-67
2023/12/28 07:02:52;;;;;;;3.92;3.13;;;;;;;21.48;50.95;101052.94;41687026;28;20041;-67
2023/12/28 07:22:52;;;;;;;4.43;3.40;;;;;;;21.66;50.95;101044.78;41668120;28;20040;-68
2023/12/28 07:42:52;;;;;;;10.82;7.10;;;;;;;21.79;51.82;101044.75;41680983;28;20052;-68
2023/12/28 08:02:53;;;;;;;9.55;6.05;;;;;;;21.82;52.26;101037.47;41677223;28;20045;-68
2023/12/28 08:22:54;;;;;;;8.25;5.70;;;;;;;21.67;50.55;101046.47;41664946;28;20041;-65
2023/12/28 08:42:55;;;;;;;20.85;9.02;;;;;;;21.18;43.40;101076.94;41651685;28;20136;-66
2023/12/28 09:02:55;;;;;;;15.45;8.80;;;;;;;21.69;45.98;101063.88;41665316;28;20045;-67
2023/12/28 09:22:56;;;;;;;11.93;8.13;;;;;;;21.77;47.27;101033.50;41658562;28;20132;-64
2023/12/28 09:43:25;;;;;;;10.90;8.65;;;;;;;21.91;48.67;100997.28;41672480;28;20056;-63
2023/12/28 10:03:25;;;;;;;14.05;9.68;;;;;;;20.26;38.28;100979.34;41670969;28;20124;-65
2023/12/28 10:23:26;;;;;;;13.30;8.65;;;;;;;21.91;42.75;100936.66;41674603;28;20049;-66
2023/12/28 10:43:27;;;;;;;14.60;9.40;;;;;;;22.19;45.22;100916.19;41666987;28;20128;-66
2023/12/28 11:03:38;;;;;;;12.25;9.50;;;;;;;22.36;46.96;100900.91;41678862;28;20488;-66
2023/12/28 11:23:38;;;;;;;12.77;8.38;;;;;;;22.13;43.66;100866.53;41674948;28;20506;-67
2023/12/28 11:43:39;;;;;;;11.40;8.45;;;;;;;22.57;44.57;100856.28;41667421;28;20048;-68
2023/12/28 12:03:39;;;;;;;14.60;11.15;;;;;;;23.49;51.41;100810.44;41636105;28;20060;-68
2023/12/28 12:23:40;;;;;;;17.13;10.63;;;;;;;21.02;37.36;100798.03;41672042;28;20049;-67
2023/12/28 12:43:43;;;;;;;13.07;9.10;;;;;;;22.46;43.34;100784.97;41672622;28;20046;-65
2023/12/28 13:03:45;;;;;;;10.68;7.82;;;;;;;22.82;45.90;100785.75;41680588;28;20033;-66
2023/12/28 13:23:45;;;;;;;15.95;7.47;;;;;;;22.82;46.79;100775.19;41692184;28;20045;-65
2023/12/28 13:43:46;;;;;;;11.50;7.45;;;;;;;22.54;47.27;100783.47;41686562;28;20042;-65
2023/12/28 14:03:48;;;;;;;12.02;6.43;;;;;;;22.29;47.33;100784.44;41686633;28;20042;-65
2023/12/28 14:23:51;;;;;;;12.85;6.88;;;;;;;22.21;49.87;100771.00;41684135;28;20045;-66
2023/12/28 14:43:58;;;;;;;9.38;6.90;;;;;;;22.06;49.17;100802.00;41685503;28;20050;-66
2023/12/28 15:03:59;;;;;;;8.90;6.60;;;;;;;21.94;50.12;100802.94;41681161;28;20112;-67
2023/12/28 15:24:01;;;;;;;12.02;7.72;;;;;;;21.59;43.77;100791.38;41658649;28;20064;-65
2023/12/28 15:44:02;;;;;;;20.08;8.35;;;;;;;21.51;47.08;100768.19;41670913;28;20044;-65
2023/12/28 16:04:02;;;;;;;21.65;9.60;;;;;;;21.16;41.43;100781.28;41669435;28;20127;-67
2023/12/28 16:24:03;;;;;;;16.77;8.15;;;;;;;21.37;44.35;100768.34;41686125;28;20156;-65
2023/12/28 16:44:03;;;;;;;15.63;8.38;;;;;;;21.35;45.84;100746.53;41676893;28;20045;-66
2023/12/28 17:04:04;;;;;;;14.63;7.63;;;;;;;21.30;46.28;100773.22;41677010;28;20546;-67
2023/12/28 17:24:10;;;;;;;12.52;7.60;;;;;;;21.25;47.03;100789.34;41674212;28;20385;-66
2023/12/28 17:44:16;;;;;;;9.60;7.07;;;;;;;21.21;46.77;100805.47;41671814;28;20041;-66
2023/12/28 18:04:16;;;;;;;11.27;7.47;;;;;;;21.14;47.38;100797.19;41705468;28;20041;-65
2023/12/28 18:24:17;;;;;;;10.73;7.28;;;;;;;21.09;47.12;100799.28;41693331;28;20539;-65
2023/12/28 18:44:18;;;;;;;9.35;6.97;;;;;;;21.05;47.72;100790.75;41697290;28;20040;-66
2023/12/28 19:04:19;;;;;;;11.05;7.43;;;;;;;20.96;47.74;100770.34;41695504;28;20037;-66
2023/12/28 19:24:20;;;;;;;10.93;7.50;;;;;;;20.95;48.03;100769.50;41666274;28;20072;-66
2023/12/28 19:44:21;;;;;;;10.32;7.65;;;;;;;20.89;47.91;100766.47;41690084;28;20409;-66
2023/12/28 20:04:22;;;;;;;11.23;8.60;;;;;;;20.86;47.70;100761.41;41681001;28;20042;-65
2023/12/28 20:24:23;;;;;;;11.02;8.77;;;;;;;20.81;47.76;100790.66;41677828;28;20095;-67
2023/12/28 20:44:24;;;;;;;11.63;9.18;;;;;;;20.77;47.80;100791.84;41673715;28;20120;-66
2023/12/28 21:04:25;;;;;;;13.95;10.18;;;;;;;20.71;47.61;100782.53;41677161;28;20408;-67
2023/12/28 21:24:26;;;;;;;14.50;10.70;;;;;;;20.69;47.75;100788.88;41685988;28;20042;-66
2023/12/28 21:44:29;;;;;;;14.52;11.60;;;;;;;20.63;48.15;100792.78;41699359;28;20133;-67
2023/12/28 22:04:29;;;;;;;22.42;13.07;;;;;;;20.72;47.35;100793.97;41691481;28;20065;-67
2023/12/28 22:24:29;;;;;;;20.48;13.07;;;;;;;20.70;49.15;100769.50;41699782;28;20453;-67
2023/12/28 22:44:30;;;;;;;28.10;16.75;;;;;;;20.51;49.19;100773.41;41674146;28;20056;-69
2023/12/28 23:04:30;;;;;;;28.20;18.52;;;;;;;20.53;48.68;100770.66;41658752;28;20461;-68
2023/12/28 23:24:31;;;;;;;27.00;18.92;;;;;;;20.51;49.18;100749.72;41682504;28;20128;-66
2023/12/28 23:44:32;;;;;;;31.50;19.30;;;;;;;20.51;49.49;100748.88;41671127;28;20044;-67
